Time;durP1;ratioP1;P1;durP2;ratioP2;P2;SDS_P1;SDS_P2;PMS_P1;PMS_P2;Temp;Humidity;BMP_temperature;BMP_pressure;BME280_temperature;BME280_humidity;BME280_pressure;Samples;Min_cycle;Max_cycle;Signal;HPM_P1;HPM_P2
2024/01/31 00:01:10;;;;;;;27.55;15.10;;;;;;;-2.77;55.37;96680.75;5028885;28;20124;-74
2024/01/31 00:03:35;;;;;;;33.95;16.65;;;;;;;-2.69;55.40;96696.19;5029962;28;20452;-76
2024/01/31 00:06:02;;;;;;;44.42;17.30;;;;;;;-2.73;55.28;96704.06;5045866;28;20029;-74
2024/01/31 00:08:27;;;;;;;36.45;18.13;;;;;;;-2.71;55.72;96701.06;5046176;28;20032;-74
2024/01/31 00:10:53;;;;;;;31.20;16.85;;;;;;;-2.75;55.64;96705.50;5047370;28;20036;-74
2024/01/31 00:13:18;;;;;;;31.48;18.23;;;;;;;-2.79;55.69;96716.06;5045604;28;20055;-73
2024/01/31 00:15:44;;;;;;;42.40;18.55;;;;;;;-2.78;55.94;96698.81;5046263;28;20063;-74
2024/01/31 00:18:09;;;;;;;38.53;19.73;;;;;;;-2.86;55.89;96694.19;5045044;28;20029;-73
2024/01/31 00:20:34;;;;;;;38.70;16.17;;;;;;;-2.76;55.76;96707.38;5048124;28;20031;-73
2024/01/31 00:23:00;;;;;;;30.15;16.20;;;;;;;-2.77;55.60;96702.31;5045519;28;20380;-74
2024/01/31 00:25:25;;;;;;;27.80;15.65;;;;;;;-2.81;55.37;96694.06;5029407;28;20400;-73
2024/01/31 00:27:51;;;;;;;30.73;16.17;;;;;;;-2.83;55.68;96692.75;5046975;28;20021;-73
2024/01/31 00:30:17;;;;;;;28.30;14.82;;;;;;;-2.94;55.68;96690.31;5046913;28;20454;-75
2024/01/31 00:32:42;;;;;;;29.05;14.63;;;;;;;-2.92;55.90;96691.91;5047198;28;20112;-74
2024/01/31 00:35:08;;;;;;;22.88;14.27;;;;;;;-2.92;55.85;96690.03;5046341;28;20420;-73
2024/01/31 00:37:33;;;;;;;29.55;15.63;;;;;;;-2.95;56.11;96694.13;5047438;28;20454;-74
2024/01/31 00:39:59;;;;;;;26.33;14.25;;;;;;;-2.98;55.95;96693.97;5045716;28;20033;-74
2024/01/31 00:42:24;;;;;;;25.05;14.25;;;;;;;-3.01;55.88;96689.97;5026947;28;20025;-74
2024/01/31 00:44:50;;;;;;;29.35;14.70;;;;;;;-3.00;55.93;96677.31;5042381;28;20100;-74
2024/01/31 00:47:15;;;;;;;28.35;13.55;;;;;;;-3.04;56.06;96679.00;5043231;28;20029;-74
2024/01/31 00:49:41;;;;;;;26.02;14.75;;;;;;;-3.07;55.90;96683.13;5026321;28;20535;-74
2024/01/31 00:52:06;;;;;;;24.08;13.02;;;;;;;-3.03;55.78;96678.72;5044129;28;20083;-73
2024/01/31 00:54:31;;;;;;;27.35;14.55;;;;;;;-3.11;56.14;96679.44;5046063;28;20543;-75
2024/01/31 00:56:57;;;;;;;21.85;13.23;;;;;;;-3.14;56.14;96674.69;5044073;28;20083;-73
2024/01/31 00:59:22;;;;;;;25.85;13.65;;;;;;;-3.12;55.93;96685.13;5045674;28;20029;-74
2024/01/31 01:01:47;;;;;;;26.05;13.48;;;;;;;-3.18;56.10;96695.22;5045727;28;20037;-74
2024/01/31 01:04:13;;;;;;;25.15;12.30;;;;;;;-3.15;56.10;96683.03;5045455;28;20028;-75
2024/01/31 01:06:41;;;;;;;29.63;15.02;;;;;;;-3.12;56.08;96690.53;5044917;28;20029;-74
2024/01/31 01:09:07;;;;;;;29.02;14.88;;;;;;;-3.17;56.50;96690.66;5028015;28;20032;-74
2024/01/31 01:11:32;;;;;;;30.55;15.50;;;;;;;-3.29;56.76;96683.13;5046634;28;20036;-75
2024/01/31 01:13:57;;;;;;;27.38;15.27;;;;;;;-3.31;57.09;96683.44;5027709;28;20044;-74
2024/01/31 01:16:23;;;;;;;35.70;17.75;;;;;;;-3.30;56.95;96689.59;5045493;28;20112;-74
2024/01/31 01:18:48;;;;;;;26.95;14.90;;;;;;;-3.31;57.29;96683.44;5043958;28;20082;-75
2024/01/31 01:21:14;;;;;;;27.25;13.73;;;;;;;-3.38;57.07;96671.50;5045441;28;20028;-74
2024/01/31 01:23:39;;;;;;;30.33;16.50;;;;;;;-3.35;57.09;96684.34;5044255;28;20055;-73
2024/01/31 01:26:04;;;;;;;23.67;14.40;;;;;;;-3.36;57.14;96680.88;5045122;28;20112;-75
2024/01/31 01:28:30;;;;;;;23.70;13.70;;;;;;;-3.38;56.91;96677.69;5044996;28;20427;-73
2024/01/31 01:30:55;;;;;;;26.70;13.50;;;;;;;-3.39;57.20;96680.66;5045619;28;20029;-74
2024/01/31 01:33:21;;;;;;;21.30;13.55;;;;;;;-3.37;57.33;96684.66;5045357;28;20076;-74
2024/01/31 01:35:46;;;;;;;26.25;13.07;;;;;;;-3.35;57.52;96685.13;5027157;28;20445;-75
2024/01/31 01:38:11;;;;;;;24.42;13.07;;;;;;;-3.38;57.33;96676.88;5045341;28;20025;-75
2024/01/31 01:40:43;;;;;;;22.05;12.25;;;;;;;-3.34;56.89;96673.28;5043960;28;20088;-73
2024/01/31 01:43:18;;;;;;;22.98;13.13;;;;;;;-3.31;56.85;96669.19;5045286;28;20115;-74
2024/01/31 01:45:44;;;;;;;25.42;12.32;;;;;;;-3.33;56.89;96671.38;5044773;28;20110;-74
2024/01/31 01:48:12;;;;;;;27.13;13.35;;;;;;;-3.33;57.18;96671.38;5027430;28;20055;-75
2024/01/31 01:50:37;;;;;;;26.38;14.52;;;;;;;-3.29;56.74;96665.09;5045209;28;20060;-75
2024/01/31 01:53:03;;;;;;;29.67;13.13;;;;;;;-3.34;57.21;96665.19;5045112;28;20151;-74
2024/01/31 01:55:29;;;;;;;22.20;12.48;;;;;;;-3.26;56.99;96669.88;5045171;28;20027;-73
2024/01/31 01:57:55;;;;;;;23.35;12.55;;;;;;;-3.26;56.71;96669.06;5045121;28;20039;-74
2024/01/31 02:00:21;;;;;;;24.55;13.20;;;;;;;-3.32;56.83;96665.72;5045028;28;20085;-74
2024/01/31 02:02:47;;;;;;;22.60;12.63;;;;;;;-3.33;57.12;96660.63;5046844;28;20025;-74
2024/01/31 02:05:12;;;;;;;24.88;13.70;;;;;;;-3.42;57.19;96657.88;5049538;28;20040;-74
2024/01/31 02:07:38;;;;;;;23.33;12.32;;;;;;;-3.39;57.55;96659.16;5048625;28;20064;-73
2024/01/31 02:10:04;;;;;;;23.73;12.15;;;;;;;-3.40;57.27;96655.66;5047465;28;20035;-73
2024/01/31 02:12:29;;;;;;;21.60;11.25;;;;;;;-3.44;57.34;96652.03;5050159;28;20033;-73
2024/01/31 02:14:57;;;;;;;23.40;15.65;;;;;;;-3.44;57.72;96651.19;5047333;28;20048;-75
2024/01/31 02:17:22;;;;;;;27.17;18.27;;;;;;;-3.40;57.53;96647.59;5050112;28;20033;-74
2024/01/31 02:19:48;;;;;;;25.92;17.08;;;;;;;-3.43;57.63;96655.50;5048953;28;20040;-74
2024/01/31 02:22:17;;;;;;;21.33;15.65;;;;;;;-3.44;57.62;96645.81;5048371;28;20025;-74
2024/01/31 02:24:42;;;;;;;23.60;14.40;;;;;;;-3.44;57.33;96641.25;5049506;28;20120;-74
2024/01/31 02:27:08;;;;;;;24.83;14.35;;;;;;;-3.63;57.44;96619.91;5048729;28;20112;-74
2024/01/31 02:29:33;;;;;;;24.35;13.90;;;;;;;-3.57;57.50;96634.03;5049909;28;20021;-75
2024/01/31 02:31:59;;;;;;;28.08;15.30;;;;;;;-3.54;57.33;96641.50;5048303;28;20068;-74
2024/01/31 02:34:25;;;;;;;27.88;14.55;;;;;;;-3.60;57.11;96632.75;5048446;28;20060;-75
2024/01/31 02:36:50;;;;;;;22.17;12.93;;;;;;;-3.63;56.70;96636.03;5048457;28;20032;-75
2024/01/31 02:39:16;;;;;;;26.52;13.68;;;;;;;-3.64;56.82;96629.06;5049134;28;20029;-73
2024/01/31 02:41:41;;;;;;;26.40;14.82;;;;;;;-3.67;56.63;96631.56;5047464;28;20029;-74
2024/01/31 02:44:07;;;;;;;26.60;14.65;;;;;;;-3.68;56.61;96633.47;5048740;28;20356;-73
2024/01/31 02:46:32;;;;;;;31.13;15.63;;;;;;;-3.67;56.66;96642.31;5048153;28;20491;-74
2024/01/31 02:49:00;;;;;;;26.80;15.03;;;;;;;-3.68;56.78;96643.44;5029760;28;20053;-74
2024/01/31 02:51:25;;;;;;;25.63;14.45;;;;;;;-3.76;56.87;96631.50;5048100;28;20076;-74
2024/01/31 02:53:51;;;;;;;21.02;14.68;;;;;;;-3.72;56.92;96634.41;5046514;28;20115;-76
2024/01/31 02:56:16;;;;;;;29.33;17.15;;;;;;;-3.75;57.08;96641.16;5049232;28;20029;-73
2024/01/31 02:58:42;;;;;;;24.33;14.20;;;;;;;-3.72;56.94;96643.25;5047043;28;20579;-73
2024/01/31 03:01:07;;;;;;;20.73;13.63;;;;;;;-3.69;56.90;96623.03;5047382;28;20029;-74
2024/01/31 03:03:33;;;;;;;23.98;12.95;;;;;;;-3.72;56.96;96629.81;5048946;28;20411;-74
2024/01/31 03:05:58;;;;;;;25.13;14.30;;;;;;;-3.74;56.89;96637.38;5046478;28;20029;-74
2024/01/31 03:08:23;;;;;;;23.02;13.25;;;;;;;-3.76;57.15;96636.88;5031113;28;20025;-74
2024/01/31 03:10:49;;;;;;;25.40;14.45;;;;;;;-3.82;57.32;96638.09;5046091;28;20063;-74
2024/01/31 03:13:14;;;;;;;22.50;13.52;;;;;;;-3.88;57.05;96628.56;5046737;28;20109;-74
2024/01/31 03:15:40;;;;;;;25.88;14.75;;;;;;;-3.85;57.25;96634.13;5047694;28;20438;-75
2024/01/31 03:18:05;;;;;;;21.17;12.55;;;;;;;-3.78;56.73;96631.03;5030432;28;20036;-75
2024/01/31 03:20:33;;;;;;;24.90;14.48;;;;;;;-3.88;56.82;96628.56;5030838;28;20035;-74
2024/01/31 03:22:58;;;;;;;25.30;14.45;;;;;;;-3.85;56.94;96627.94;5047997;28;20544;-75
2024/01/31 03:25:23;;;;;;;23.65;14.75;;;;;;;-3.90;57.10;96625.38;5048854;28;20548;-75
2024/01/31 03:27:49;;;;;;;23.33;13.70;;;;;;;-3.98;57.31;96620.72;5047318;28;20143;-74
2024/01/31 03:30:15;;;;;;;21.73;12.33;;;;;;;-3.98;57.71;96618.81;5047381;28;20032;-74
2024/01/31 03:32:40;;;;;;;19.92;12.43;;;;;;;-3.96;57.19;96615.84;5047521;28;20487;-75
2024/01/31 03:35:06;;;;;;;26.97;13.40;;;;;;;-3.93;57.10;96626.00;5048557;28;20100;-75
2024/01/31 03:37:32;;;;;;;28.17;14.03;;;;;;;-3.95;57.39;96626.28;5046428;28;20055;-74
2024/01/31 03:39:57;;;;;;;29.67;14.00;;;;;;;-3.98;57.37;96621.50;5046162;28;20118;-75
2024/01/31 03:42:22;;;;;;;29.40;13.35;;;;;;;-3.96;57.10;96618.53;5030211;28;20033;-73
2024/01/31 03:44:48;;;;;;;22.17;14.00;;;;;;;-3.96;57.13;96624.69;5047317;28;20426;-74
2024/01/31 03:47:14;;;;;;;24.42;13.25;;;;;;;-3.98;57.23;96626.88;5048710;28;20160;-74
2024/01/31 03:49:39;;;;;;;31.90;14.07;;;;;;;-3.97;56.98;96633.84;5046915;28;20132;-74
2024/01/31 03:52:05;;;;;;;31.80;15.10;;;;;;;-3.95;56.78;96628.19;5048021;28;20162;-74
2024/01/31 03:54:30;;;;;;;32.15;14.00;;;;;;;-4.01;57.01;96630.19;5047162;28;20032;-74
2024/01/31 03:56:56;;;;;;;27.10;14.25;;;;;;;-4.11;57.43;96630.41;5047709;28;20103;-73
2024/01/31 03:59:21;;;;;;;25.60;12.73;;;;;;;-4.07;57.32;96631.38;5047971;28;20029;-75
2024/01/31 04:01:50;;;;;;;31.30;14.80;;;;;;;-4.14;57.45;96642.53;5047175;28;20434;-74
2024/01/31 04:04:16;;;;;;;22.70;12.33;;;;;;;-4.06;57.75;96630.31;5048258;28;20112;-74
2024/01/31 04:06:41;;;;;;;23.80;13.57;;;;;;;-4.12;57.92;96637.69;5046755;28;20175;-74
2024/01/31 04:09:06;;;;;;;29.13;13.13;;;;;;;-4.13;58.57;96641.47;5047799;28;20033;-74
2024/01/31 04:11:34;;;;;;;22.47;12.37;;;;;;;-4.16;58.71;96636.69;5046687;28;20116;-75
2024/01/31 04:14:01;;;;;;;34.70;17.47;;;;;;;-4.14;58.94;96645.22;5046543;28;20033;-74
2024/01/31 04:16:26;;;;;;;38.53;16.95;;;;;;;-4.17;58.78;96650.41;5047308;28;20028;-75
2024/01/31 04:18:52;;;;;;;37.77;16.93;;;;;;;-4.16;58.58;96644.72;5046871;28;20318;-75
2024/01/31 04:21:19;;;;;;;33.30;16.40;;;;;;;-4.16;58.76;96655.47;5046312;28;20033;-75
2024/01/31 04:23:44;;;;;;;32.72;16.30;;;;;;;-4.18;58.85;96651.50;5045194;28;20040;-74
2024/01/31 04:26:10;;;;;;;27.63;13.32;;;;;;;-4.20;58.70;96653.69;5047064;28;20028;-75
2024/01/31 04:28:35;;;;;;;33.53;16.33;;;;;;;-4.23;58.85;96643.56;5046341;28;20053;-74
2024/01/31 04:31:00;;;;;;;29.25;16.02;;;;;;;-4.23;59.08;96646.25;5046112;28;20414;-75
2024/01/31 04:33:26;;;;;;;38.73;16.63;;;;;;;-4.25;58.96;96638.47;5046586;28;20025;-74
2024/01/31 04:35:51;;;;;;;30.43;17.33;;;;;;;-4.23;58.96;96644.34;5045701;28;20025;-74
2024/01/31 04:38:17;;;;;;;41.60;18.30;;;;;;;-4.23;58.92;96646.25;5047043;28;20376;-74
2024/01/31 04:40:42;;;;;;;36.00;17.53;;;;;;;-4.25;58.80;96646.53;5044657;28;20106;-75
2024/01/31 04:43:07;;;;;;;29.93;16.27;;;;;;;-4.28;58.37;96644.47;5045818;28;20491;-74
2024/01/31 04:45:33;;;;;;;29.55;15.80;;;;;;;-4.31;58.33;96645.03;5046168;28;20115;-74
2024/01/31 04:47:58;;;;;;;28.07;15.60;;;;;;;-4.29;58.08;96649.03;5045544;28;20055;-75
2024/01/31 04:50:24;;;;;;;28.63;15.33;;;;;;;-4.33;58.16;96642.66;5044744;28;20029;-74
2024/01/31 04:52:49;;;;;;;26.00;15.40;;;;;;;-4.41;58.35;96642.59;5045408;28;20089;-75
2024/01/31 04:55:15;;;;;;;25.67;15.10;;;;;;;-4.41;58.16;96647.97;5046449;28;20603;-74
2024/01/31 04:57:40;;;;;;;25.20;14.13;;;;;;;-4.39;57.94;96651.13;5045183;28;20444;-74
2024/01/31 05:00:07;;;;;;;26.13;14.37;;;;;;;-4.45;57.67;96630.84;5046793;28;20033;-74
2024/01/31 05:02:32;;;;;;;30.70;16.03;;;;;;;-4.38;57.76;96644.66;5044609;28;20499;-74
2024/01/31 05:05:00;;;;;;;28.13;16.83;;;;;;;-4.43;58.35;96634.81;5028821;28;20055;-74
2024/01/31 05:07:26;;;;;;;30.93;17.03;;;;;;;-4.42;58.16;96643.66;5044530;28;20021;-75
2024/01/31 05:09:51;;;;;;;36.70;17.77;;;;;;;-4.42;58.21;96638.28;5046765;28;20118;-75
2024/01/31 05:12:16;;;;;;;35.77;17.93;;;;;;;-4.44;58.85;96643.16;5046005;28;20075;-75
2024/01/31 05:14:42;;;;;;;32.22;18.20;;;;;;;-4.48;58.85;96636.78;5045220;28;20476;-75
2024/01/31 05:17:07;;;;;;;31.37;17.77;;;;;;;-4.46;58.42;96643.47;5028275;28;20116;-75
2024/01/31 05:19:33;;;;;;;29.63;14.90;;;;;;;-4.56;58.66;96644.47;5044634;28;20032;-74
2024/01/31 05:21:58;;;;;;;24.07;14.93;;;;;;;-4.58;58.55;96641.28;5045226;28;20032;-74
2024/01/31 05:24:24;;;;;;;29.50;13.83;;;;;;;-4.59;58.16;96647.75;5027534;28;20036;-74
2024/01/31 05:26:50;;;;;;;32.77;14.03;;;;;;;-4.50;57.90;96641.69;5046793;28;20512;-74
2024/01/31 05:29:15;;;;;;;26.33;12.53;;;;;;;-4.58;58.00;96649.34;5044203;28;20471;-74
2024/01/31 05:31:42;;;;;;;23.77;13.63;;;;;;;-4.60;58.39;96654.19;5046656;28;20135;-74
2024/01/31 05:34:07;;;;;;;21.63;12.80;;;;;;;-4.67;58.38;96653.78;5027881;28;20025;-74
2024/01/31 05:36:32;;;;;;;32.00;12.93;;;;;;;-4.74;58.10;96661.44;5044903;28;20526;-73
2024/01/31 05:38:58;;;;;;;29.93;12.93;;;;;;;-4.73;58.35;96672.97;5032214;28;20041;-75
2024/01/31 05:41:24;;;;;;;27.13;12.73;;;;;;;-4.76;58.44;96660.13;5048100;28;20480;-73
2024/01/31 05:43:49;;;;;;;22.67;13.63;;;;;;;-4.73;58.32;96665.72;5049466;28;20163;-74
2024/01/31 05:46:16;;;;;;;25.43;13.17;;;;;;;-4.76;58.42;96677.03;5048007;28;20033;-73
2024/01/31 05:48:46;;;;;;;23.67;13.50;;;;;;;-4.74;58.48;96676.75;5049105;28;20041;-74
2024/01/31 05:51:13;;;;;;;26.23;14.30;;;;;;;-4.82;58.47;96672.84;5047974;28;20586;-74
2024/01/31 05:53:39;;;;;;;30.00;14.93;;;;;;;-4.80;58.49;96686.78;5048892;28;20047;-76
2024/01/31 05:56:04;;;;;;;26.83;14.20;;;;;;;-4.92;58.79;96667.69;5050102;28;20484;-74
2024/01/31 05:58:30;;;;;;;28.63;14.53;;;;;;;-4.93;58.96;96682.16;5048039;28;20618;-74
2024/01/31 06:00:56;;;;;;;30.17;14.60;;;;;;;-4.95;58.96;96679.78;5048672;28;20403;-74
2024/01/31 06:03:22;;;;;;;25.53;13.97;;;;;;;-4.89;58.69;96681.28;5047530;28;20092;-74
2024/01/31 06:05:48;;;;;;;24.60;13.30;;;;;;;-4.94;58.97;96673.34;5048882;28;20032;-75
2024/01/31 06:08:14;;;;;;;26.50;14.30;;;;;;;-4.86;59.11;96680.72;5047474;28;20025;-74
2024/01/31 06:10:39;;;;;;;23.47;13.90;;;;;;;-4.79;58.83;96671.47;5049922;28;20029;-74
2024/01/31 06:13:04;;;;;;;26.57;13.90;;;;;;;-4.89;59.24;96672.44;5049694;28;20063;-73
2024/01/31 06:15:30;;;;;;;30.90;14.20;;;;;;;-4.87;59.50;96667.59;5047855;28;20025;-75
2024/01/31 06:17:55;;;;;;;24.70;13.83;;;;;;;-4.80;59.19;96670.69;5031656;28;20021;-74
2024/01/31 06:20:20;;;;;;;27.50;15.13;;;;;;;-4.81;59.60;96672.59;5048905;28;20029;-73
2024/01/31 06:22:46;;;;;;;28.33;13.77;;;;;;;-4.79;59.69;96671.47;5048705;28;20040;-74
2024/01/31 06:25:11;;;;;;;28.33;14.17;;;;;;;-4.82;59.86;96665.63;5030519;28;20087;-73
2024/01/31 06:27:37;;;;;;;20.83;13.33;;;;;;;-4.74;59.69;96685.59;5048255;28;20033;-74
2024/01/31 06:30:04;;;;;;;28.17;13.77;;;;;;;-4.77;59.73;96678.13;5030902;28;20025;-74
2024/01/31 06:32:32;;;;;;;28.77;16.27;;;;;;;-4.73;59.72;96684.50;5047969;28;20033;-73
2024/01/31 06:34:58;;;;;;;30.73;16.20;;;;;;;-4.75;59.72;96680.53;5047992;28;20476;-73
2024/01/31 06:37:24;;;;;;;28.10;17.10;;;;;;;-4.80;59.73;96673.38;5047198;28;20028;-74
2024/01/31 06:39:53;;;;;;;30.73;14.87;;;;;;;-4.73;59.70;96675.66;5048187;28;20035;-73
2024/01/31 06:42:19;;;;;;;29.40;15.23;;;;;;;-4.70;59.69;96672.38;5047205;28;20041;-73
2024/01/31 06:44:45;;;;;;;32.07;17.63;;;;;;;-4.63;59.52;96686.22;5049580;28;20031;-74
2024/01/31 06:47:10;;;;;;;33.30;18.47;;;;;;;-4.64;59.66;96684.63;5048638;28;20095;-73
2024/01/31 06:49:35;;;;;;;34.23;18.50;;;;;;;-4.65;59.61;96678.44;5047542;28;20033;-74
2024/01/31 06:52:01;;;;;;;38.03;20.20;;;;;;;-4.59;59.86;96681.81;5048969;28;20112;-73
2024/01/31 06:54:26;;;;;;;33.87;19.47;;;;;;;-4.56;59.62;96679.34;5047074;28;20454;-74
2024/01/31 06:56:52;;;;;;;33.50;19.33;;;;;;;-4.45;59.78;96682.66;5049505;28;20040;-73
2024/01/31 06:59:17;;;;;;;44.30;21.63;;;;;;;-4.41;59.68;96672.13;5046453;28;20406;-74
2024/01/31 07:01:42;;;;;;;38.17;19.97;;;;;;;-4.35;59.71;96673.59;5049542;28;20086;-73
2024/01/31 07:04:08;;;;;;;39.00;20.93;;;;;;;-4.25;59.69;96675.28;5046629;28;20032;-74
2024/01/31 07:06:33;;;;;;;39.43;21.23;;;;;;;-4.23;59.40;96673.91;5049006;28;20021;-74
2024/01/31 07:08:59;;;;;;;40.27;20.83;;;;;;;-4.18;59.23;96676.47;5048527;28;20103;-73
2024/01/31 07:11:24;;;;;;;44.25;20.90;;;;;;;-4.02;58.83;96685.78;5047115;28;20039;-74
2024/01/31 07:13:49;;;;;;;35.38;19.98;;;;;;;-3.92;58.97;96684.00;5048959;28;20439;-74
2024/01/31 07:16:15;;;;;;;52.13;23.38;;;;;;;-3.89;58.67;96683.41;5047697;28;20052;-73
2024/01/31 07:18:41;;;;;;;46.00;24.42;;;;;;;-3.79;58.76;96683.16;5047582;28;20033;-73
2024/01/31 07:21:07;;;;;;;51.25;26.83;;;;;;;-3.74;58.19;96675.78;5047338;28;20495;-74
2024/01/31 07:23:32;;;;;;;52.97;27.88;;;;;;;-3.58;57.82;96675.47;5047416;28;20033;-74
2024/01/31 07:25:57;;;;;;;64.70;26.95;;;;;;;-3.55;57.75;96670.28;5047644;28;20080;-76
2024/01/31 07:28:23;;;;;;;46.75;24.02;;;;;;;-3.40;57.12;96665.63;5030598;28;20032;-76
2024/01/31 07:30:48;;;;;;;42.47;23.52;;;;;;;-3.26;57.05;96669.06;5048525;28;20084;-74
2024/01/31 07:33:14;;;;;;;37.78;22.00;;;;;;;-3.10;56.89;96677.56;5049875;28;20116;-75
2024/01/31 07:35:39;;;;;;;54.55;24.70;;;;;;;-3.05;56.73;96683.59;5053207;28;20052;-74
2024/01/31 07:38:04;;;;;;;43.42;24.05;;;;;;;-2.93;56.44;96674.97;5055508;28;20064;-74
2024/01/31 07:40:30;;;;;;;38.08;22.13;;;;;;;-2.77;56.28;96668.09;5066782;28;20530;-73
2024/01/31 07:42:55;;;;;;;42.65;21.77;;;;;;;-2.60;55.80;96671.97;5058615;28;20471;-73
2024/01/31 07:45:21;;;;;;;41.63;21.77;;;;;;;-2.46;55.68;96670.78;5058697;28;20028;-73
2024/01/31 07:47:46;;;;;;;42.00;23.42;;;;;;;-2.39;55.28;96664.94;5062464;28;20025;-72
2024/01/31 07:50:12;;;;;;;42.80;22.98;;;;;;;-2.20;55.06;96670.88;5064760;28;20129;-72
2024/01/31 07:52:37;;;;;;;47.53;23.23;;;;;;;-2.00;54.87;96679.50;5046539;28;20087;-73
2024/01/31 07:55:05;;;;;;;36.55;22.45;;;;;;;-1.77;54.40;96680.19;5046859;28;20112;-75
2024/01/31 07:57:31;;;;;;;44.90;24.65;;;;;;;-1.54;53.52;96668.16;5046936;28;20025;-74
2024/01/31 07:59:56;;;;;;;45.50;24.00;;;;;;;-1.20;53.17;96669.25;5044350;28;20219;-74
2024/01/31 08:02:21;;;;;;;42.55;24.95;;;;;;;-0.87;52.58;96664.09;5048266;28;20033;-75
2024/01/31 08:04:47;;;;;;;42.25;23.75;;;;;;;-0.50;51.22;96665.28;5049001;28;20025;-73
2024/01/31 08:07:13;;;;;;;38.35;21.50;;;;;;;-0.05;50.20;96662.88;5066362;28;20078;-74
2024/01/31 08:09:39;;;;;;;46.20;23.25;;;;;;;0.45;49.31;96662.06;5067717;28;20060;-74
2024/01/31 08:12:06;;;;;;;42.53;23.75;;;;;;;1.00;48.03;96662.91;5065304;28;20028;-73
2024/01/31 08:14:31;;;;;;;37.85;23.00;;;;;;;1.65;46.69;96660.44;5064555;28;20107;-74
2024/01/31 08:16:57;;;;;;;46.90;25.15;;;;;;;2.48;44.82;96664.63;5052764;28;20132;-74
2024/01/31 08:19:22;;;;;;;39.03;21.02;;;;;;;3.75;42.30;96654.88;5044735;28;20558;-77
2024/01/31 08:21:47;;;;;;;35.25;21.20;;;;;;;5.32;39.12;96651.72;5053630;28;20035;-76
2024/01/31 08:24:13;;;;;;;38.90;21.38;;;;;;;6.72;36.20;96654.78;5046093;28;20028;-80
2024/01/31 08:26:38;;;;;;;33.63;20.50;;;;;;;7.99;33.44;96645.63;5045516;28;20476;-77
2024/01/31 08:29:04;;;;;;;33.83;22.08;;;;;;;8.87;31.82;96647.41;5045481;28;20028;-78
2024/01/31 08:31:29;;;;;;;31.55;19.65;;;;;;;9.95;29.80;96646.56;5029371;28;20032;-77
2024/01/31 08:33:55;;;;;;;31.30;19.98;;;;;;;10.61;28.55;96643.44;5045408;28;20021;-77
2024/01/31 08:36:20;;;;;;;29.92;20.05;;;;;;;11.59;27.11;96648.97;5047633;28;20014;-75
2024/01/31 08:38:46;;;;;;;34.00;22.13;;;;;;;12.30;26.13;96638.66;5044866;28;20470;-77
2024/01/31 08:41:11;;;;;;;34.63;19.52;;;;;;;13.24;24.77;96642.84;5047011;28;20525;-76
2024/01/31 08:43:36;;;;;;;37.78;22.83;;;;;;;13.79;24.35;96644.50;5045300;28;20075;-75
2024/01/31 08:46:02;;;;;;;29.75;20.33;;;;;;;14.37;23.19;96638.88;5047036;28;20021;-75
2024/01/31 08:48:27;;;;;;;30.38;18.95;;;;;;;14.90;22.72;96634.41;5062096;28;20793;-76
2024/01/31 08:50:53;;;;;;;27.55;19.27;;;;;;;15.64;22.37;96632.16;5047218;28;20116;-75
2024/01/31 08:53:18;;;;;;;30.42;20.10;;;;;;;16.30;21.06;96627.50;5046740;28;20130;-76
2024/01/31 08:55:44;;;;;;;24.63;18.92;;;;;;;16.86;20.44;96624.47;5045783;28;20518;-75
2024/01/31 08:58:09;;;;;;;28.55;19.45;;;;;;;17.50;19.57;96617.94;5045673;28;20025;-76
2024/01/31 09:00:34;;;;;;;32.10;19.52;;;;;;;17.80;19.15;96615.09;5046659;28;20017;-76
2024/01/31 09:03:00;;;;;;;26.92;19.77;;;;;;;18.09;18.94;96613.00;5065107;28;20498;-75
2024/01/31 09:05:25;;;;;;;25.70;19.25;;;;;;;18.62;18.51;96604.09;5063207;28;20095;-77
2024/01/31 09:07:51;;;;;;;24.85;18.45;;;;;;;19.11;17.75;96601.63;5048659;28;20105;-76
2024/01/31 09:10:16;;;;;;;28.17;18.52;;;;;;;19.75;17.24;96599.25;5054028;28;20134;-76
2024/01/31 09:12:42;;;;;;;27.42;20.73;;;;;;;20.32;17.20;96599.00;5047381;28;20040;-75
2024/01/31 09:15:09;;;;;;;24.60;19.15;;;;;;;20.47;16.96;96605.56;5063181;28;20107;-75
2024/01/31 09:17:34;;;;;;;26.23;18.23;;;;;;;20.92;16.40;96595.72;5061959;28;20032;-75
2024/01/31 09:20:00;;;;;;;26.88;18.80;;;;;;;21.61;15.96;96592.25;5043682;28;20021;-75
2024/01/31 09:22:25;;;;;;;24.58;18.73;;;;;;;21.71;15.52;96585.38;5044647;28;20056;-74
2024/01/31 09:24:51;;;;;;;27.27;18.45;;;;;;;21.83;15.69;96582.84;5052431;28;20017;-75
2024/01/31 09:27:19;;;;;;;24.70;18.13;;;;;;;22.25;15.35;96578.03;5061622;28;20037;-75
2024/01/31 09:29:45;;;;;;;27.48;18.17;;;;;;;23.10;14.79;96574.97;5044586;28;20566;-75
2024/01/31 09:32:11;;;;;;;22.02;17.15;;;;;;;23.48;14.23;96562.94;5045214;28;20526;-75
2024/01/31 09:34:36;;;;;;;24.85;17.63;;;;;;;23.72;14.18;96557.22;5041175;28;20029;-75
2024/01/31 09:37:01;;;;;;;24.33;17.95;;;;;;;24.03;13.76;96567.94;5066659;28;20029;-76
2024/01/31 09:39:30;;;;;;;20.92;17.38;;;;;;;24.39;13.61;96560.31;5056542;28;20025;-77
2024/01/31 09:41:55;;;;;;;22.55;17.55;;;;;;;24.58;13.44;96550.34;5048938;28;20033;-75
2024/01/31 09:44:21;;;;;;;20.80;16.52;;;;;;;24.97;13.04;96552.88;5055709;28;20031;-75
2024/01/31 09:46:49;;;;;;;19.13;16.05;;;;;;;25.08;13.09;96561.47;5062817;28;20033;-75
2024/01/31 09:49:15;;;;;;;19.38;15.68;;;;;;;25.77;12.46;96535.53;5062569;28;20045;-76
2024/01/31 09:51:40;;;;;;;21.95;16.80;;;;;;;26.08;12.48;96537.53;5042355;28;20082;-76
2024/01/31 09:54:07;;;;;;;21.48;17.00;;;;;;;26.26;12.31;96536.38;5045158;28;20500;-75
2024/01/31 09:56:33;;;;;;;20.35;15.85;;;;;;;26.36;12.04;96526.44;5056109;28;20033;-75
2024/01/31 09:58:59;;;;;;;27.63;17.23;;;;;;;26.62;12.13;96524.31;5030502;28;20029;-75
2024/01/31 10:01:26;;;;;;;22.83;15.70;;;;;;;26.89;11.89;96516.44;5030641;28;20109;-75
2024/01/31 10:03:52;;;;;;;19.70;15.25;;;;;;;27.28;11.38;96516.56;5062583;28;20115;-76
2024/01/31 10:06:17;;;;;;;20.00;15.50;;;;;;;27.30;11.67;96508.38;5059558;28;20112;-76
2024/01/31 10:08:43;;;;;;;18.92;15.10;;;;;;;27.77;11.16;96517.16;5045299;28;20025;-77
2024/01/31 10:11:08;;;;;;;26.00;16.30;;;;;;;28.47;10.76;96516.03;5038207;28;20025;-76
2024/01/31 10:13:34;;;;;;;23.40;16.08;;;;;;;28.48;10.86;96509.09;5055229;28;20025;-75
2024/01/31 10:15:59;;;;;;;19.95;15.05;;;;;;;28.28;10.64;96495.25;5050751;28;20100;-76
2024/01/31 10:18:27;;;;;;;19.95;14.65;;;;;;;28.69;10.38;96501.06;5055119;28;20087;-76
2024/01/31 10:20:53;;;;;;;18.95;14.85;;;;;;;29.18;10.47;96498.50;5060472;28;20028;-75
2024/01/31 10:23:19;;;;;;;20.92;14.45;;;;;;;29.48;10.13;96497.81;5065225;28;20028;-76
2024/01/31 10:25:44;;;;;;;19.85;14.55;;;;;;;29.49;10.08;96485.19;5048219;28;20398;-76
2024/01/31 10:28:10;;;;;;;25.75;15.20;;;;;;;29.83;9.74;96480.78;5048436;28;20083;-76
2024/01/31 10:30:45;;;;;;;22.17;15.10;;;;;;;30.20;9.41;96465.25;5031108;28;20418;-77
2024/01/31 10:33:11;;;;;;;21.27;14.93;;;;;;;30.19;9.87;96462.94;5057233;28;20032;-76
2024/01/31 10:35:39;;;;;;;22.48;15.38;;;;;;;30.36;9.92;96464.28;5056633;28;20444;-76
2024/01/31 10:38:06;;;;;;;18.52;14.73;;;;;;;30.83;9.52;96458.31;5049464;28;20486;-75
2024/01/31 10:40:33;;;;;;;20.85;14.57;;;;;;;31.29;9.30;96452.78;5061935;28;20032;-77
2024/01/31 10:42:58;;;;;;;21.92;15.50;;;;;;;31.63;8.93;96447.31;5050200;28;20039;-76
2024/01/31 10:45:25;;;;;;;20.92;15.20;;;;;;;31.69;8.70;96451.59;5066295;28;20116;-76
2024/01/31 10:47:50;;;;;;;20.48;14.98;;;;;;;32.20;8.54;96448.66;5067224;28;20024;-76
2024/01/31 10:50:16;;;;;;;19.95;14.57;;;;;;;32.14;8.58;96430.91;5069662;28;20021;-76
2024/01/31 10:52:42;;;;;;;18.45;14.70;;;;;;;32.53;8.03;96425.81;5067073;28;20056;-75
2024/01/31 10:55:08;;;;;;;19.73;13.85;;;;;;;32.75;7.77;96419.63;5069294;28;20094;-76
2024/01/31 10:57:34;;;;;;;20.42;14.02;;;;;;;32.87;7.93;96426.59;5067317;28;20025;-76
2024/01/31 11:00:02;;;;;;;18.35;14.48;;;;;;;33.03;8.04;96421.84;5067711;28;20477;-75
2024/01/31 11:02:32;;;;;;;20.92;14.77;;;;;;;33.24;7.70;96419.06;5067647;28;20029;-76
2024/01/31 11:05:01;;;;;;;19.45;13.60;;;;;;;33.41;7.95;96415.81;5050596;28;20106;-76
2024/01/31 11:07:26;;;;;;;19.48;13.25;;;;;;;33.62;7.78;96410.88;5050758;28;20032;-75
2024/01/31 11:09:52;;;;;;;21.05;14.48;;;;;;;34.63;6.98;96393.13;5068402;28;20024;-75